createdAt,value
2022-07-25T00:01:37.590Z,22.30
2022-07-25T00:04:11.056Z,22.20
2022-07-25T00:06:41.808Z,22.00
2022-07-25T00:11:40.807Z,22.10
2022-07-25T00:14:09.593Z,22.10
2022-07-25T00:16:38.483Z,22.00
2022-07-25T00:19:07.088Z,21.90
2022-07-25T00:21:35.491Z,21.70
2022-07-25T00:24:05.703Z,21.50
2022-07-25T00:26:39.777Z,21.60
2022-07-25T00:29:08.779Z,21.60
2022-07-25T00:31:38.455Z,21.50
2022-07-25T00:34:07.192Z,21.50
2022-07-25T00:36:35.651Z,21.60
2022-07-25T00:39:05.613Z,21.50
2022-07-25T00:41:34.009Z,21.60
2022-07-25T00:44:03.172Z,21.50
2022-07-25T00:46:32.030Z,21.60
2022-07-25T00:49:03.270Z,21.50
2022-07-25T00:51:32.315Z,21.60
2022-07-25T00:57:00.374Z,21.60
2022-07-25T00:59:30.734Z,21.60
2022-07-25T01:02:04.870Z,21.60
2022-07-25T01:04:33.634Z,21.50
2022-07-25T01:07:02.453Z,21.40
2022-07-25T01:09:31.833Z,21.30
2022-07-25T01:12:01.805Z,21.20
2022-07-25T01:14:30.100Z,21.20
2022-07-25T01:16:58.444Z,21.20
2022-07-25T01:19:26.761Z,21.20
2022-07-25T01:21:56.967Z,21.20
2022-07-25T01:24:25.310Z,21.10
2022-07-25T01:26:55.337Z,20.90
2022-07-25T01:29:23.791Z,20.90
2022-07-25T01:31:52.272Z,20.90
2022-07-25T01:34:20.841Z,20.80
2022-07-25T01:36:49.381Z,20.70
2022-07-25T01:39:19.950Z,20.80
2022-07-25T01:41:48.343Z,20.80
2022-07-25T01:44:17.369Z,20.80
2022-07-25T01:46:46.019Z,20.80
2022-07-25T01:49:14.988Z,20.70
2022-07-25T01:51:49.380Z,20.80
2022-07-25T01:54:19.695Z,20.80
2022-07-25T01:56:48.634Z,20.70
2022-07-25T01:59:17.133Z,20.70
2022-07-25T02:01:47.609Z,20.60
2022-07-25T02:04:21.114Z,20.70
2022-07-25T02:06:49.708Z,20.60
2022-07-25T02:09:19.487Z,20.70
2022-07-25T02:11:47.790Z,20.70
2022-07-25T02:14:16.430Z,20.80
2022-07-25T02:16:44.854Z,20.80
2022-07-25T02:19:13.085Z,20.80
2022-07-25T02:21:41.535Z,20.70
2022-07-25T02:24:10.305Z,20.70
2022-07-25T02:26:40.130Z,20.60
2022-07-25T02:29:08.375Z,20.50
2022-07-25T02:31:36.837Z,20.40
2022-07-25T02:34:06.160Z,20.40
2022-07-25T02:36:35.034Z,20.40
2022-07-25T02:39:03.327Z,20.40
2022-07-25T02:41:31.914Z,20.40
2022-07-25T02:44:01.633Z,20.30
2022-07-25T02:46:32.274Z,20.10
2022-07-25T02:49:00.774Z,20.10
2022-07-25T02:51:29.276Z,20.20
2022-07-25T02:56:30.199Z,20.40
2022-07-25T02:58:58.713Z,20.50
2022-07-25T03:01:28.536Z,20.50
2022-07-25T03:03:57.428Z,20.40
2022-07-25T03:06:26.663Z,20.30
2022-07-25T03:08:54.919Z,20.40
2022-07-25T03:11:23.417Z,20.40
2022-07-25T03:13:51.846Z,20.50
2022-07-25T03:16:20.323Z,20.50
2022-07-25T03:18:52.391Z,20.60
2022-07-25T03:21:21.331Z,20.40
2022-07-25T03:24:03.717Z,20.20
2022-07-25T03:26:32.433Z,20.30
2022-07-25T03:31:29.677Z,20.30
2022-07-25T03:33:59.591Z,20.30
2022-07-25T03:36:28.125Z,20.20
2022-07-25T03:38:57.838Z,20.10
2022-07-25T03:41:27.769Z,20.00
2022-07-25T03:46:29.170Z,20.00
2022-07-25T03:48:59.236Z,20.00
2022-07-25T03:51:27.635Z,20.00
2022-07-25T03:54:05.349Z,20.00
2022-07-25T03:56:38.388Z,19.90
2022-07-25T03:59:13.683Z,19.90
2022-07-25T04:01:45.628Z,19.90
2022-07-25T04:04:16.215Z,19.80
2022-07-25T04:06:44.759Z,19.70
2022-07-25T04:09:17.148Z,19.60
2022-07-25T04:11:45.330Z,19.50
2022-07-25T04:14:14.286Z,19.50
2022-07-25T04:16:42.644Z,19.50
2022-07-25T04:19:12.175Z,19.50
2022-07-25T04:21:41.963Z,19.70
2022-07-25T04:24:10.231Z,19.70
2022-07-25T04:26:38.367Z,19.80
2022-07-25T04:29:06.491Z,19.80
2022-07-25T04:31:34.814Z,19.60
2022-07-25T04:34:03.328Z,19.60
2022-07-25T04:36:31.841Z,19.60
2022-07-25T04:39:01.498Z,19.60
2022-07-25T04:41:29.723Z,19.60
2022-07-25T04:44:00.453Z,19.60
2022-07-25T04:46:28.679Z,19.70
2022-07-25T04:49:00.297Z,20.00
2022-07-25T04:51:29.077Z,20.30
2022-07-25T04:53:59.199Z,20.50
2022-07-25T04:56:30.440Z,20.50
2022-07-25T04:59:06.268Z,20.40
2022-07-25T05:01:35.301Z,20.70
2022-07-25T05:04:03.783Z,21.10
2022-07-25T05:06:32.683Z,21.40
2022-07-25T05:09:00.814Z,21.70
2022-07-25T05:11:30.384Z,21.90
2022-07-25T05:14:23.937Z,22.10
2022-07-25T05:16:55.168Z,22.10
2022-07-25T05:19:23.490Z,22.20
2022-07-25T05:22:01.260Z,22.50
2022-07-25T05:24:34.635Z,22.90
2022-07-25T05:27:07.765Z,22.70
2022-07-25T05:29:38.924Z,22.60
2022-07-25T05:32:10.233Z,22.70
2022-07-25T05:34:49.824Z,22.80
2022-07-25T05:37:18.201Z,22.80
2022-07-25T05:39:46.403Z,23.10
2022-07-25T05:42:23.143Z,23.60
2022-07-25T05:44:51.302Z,24.20
2022-07-25T05:47:26.891Z,24.70
2022-07-25T05:49:55.342Z,25.00
2022-07-25T05:52:23.543Z,25.20
2022-07-25T05:54:52.191Z,25.20
2022-07-25T05:57:21.751Z,24.40
2022-07-25T05:59:53.428Z,24.30
2022-07-25T06:02:24.634Z,24.20
2022-07-25T06:04:52.908Z,24.20
2022-07-25T06:07:22.576Z,24.60
2022-07-25T06:09:50.923Z,25.00
2022-07-25T06:12:19.161Z,25.50
2022-07-25T06:14:54.641Z,26.00
2022-07-25T06:17:23.309Z,26.10
2022-07-25T06:19:51.445Z,26.50
2022-07-25T06:22:21.955Z,26.40
2022-07-25T06:24:50.156Z,26.40
2022-07-25T06:27:23.928Z,26.40
2022-07-25T06:29:58.760Z,26.60
2022-07-25T06:32:27.012Z,26.80
2022-07-25T06:34:55.254Z,27.20
2022-07-25T06:37:26.050Z,27.60
2022-07-25T06:39:58.544Z,28.00
2022-07-25T06:42:27.157Z,28.10
2022-07-25T06:44:57.822Z,28.10
2022-07-25T06:47:27.347Z,28.00
2022-07-25T06:49:55.783Z,28.10
2022-07-25T06:52:26.234Z,28.10
2022-07-25T06:55:00.824Z,28.10
2022-07-25T06:57:29.043Z,28.40
2022-07-25T06:59:59.150Z,28.30
2022-07-25T07:02:27.567Z,28.10
2022-07-25T07:04:59.465Z,28.20
2022-07-25T07:10:21.949Z,28.10
2022-07-25T07:13:03.179Z,27.50
2022-07-25T07:15:36.287Z,27.40
2022-07-25T07:18:08.238Z,27.40
2022-07-25T07:20:37.144Z,27.60
2022-07-25T07:23:05.691Z,27.70
2022-07-25T07:25:35.361Z,27.70
2022-07-25T07:28:04.345Z,27.80
2022-07-25T07:31:05.837Z,28.20
2022-07-25T07:33:26.714Z,28.20
2022-07-25T07:35:58.245Z,27.30
2022-07-25T07:38:27.182Z,27.40
2022-07-25T07:40:58.529Z,27.90
2022-07-25T07:43:29.952Z,28.20
2022-07-25T07:46:04.569Z,29.20
2022-07-25T07:48:36.151Z,28.00
2022-07-25T07:51:10.139Z,27.80
2022-07-25T07:54:01.952Z,27.60
2022-07-25T07:56:32.198Z,27.60
2022-07-25T07:59:01.349Z,27.70
2022-07-25T08:01:31.670Z,27.80
2022-07-25T08:04:00.352Z,27.90
2022-07-25T08:06:29.075Z,27.90
2022-07-25T08:08:57.469Z,27.70
2022-07-25T08:11:26.481Z,27.70
2022-07-25T08:13:54.673Z,27.80
2022-07-25T08:16:33.631Z,27.80
2022-07-25T08:19:03.377Z,27.70
2022-07-25T08:21:31.549Z,27.30
2022-07-25T08:24:00.162Z,27.40
2022-07-25T08:26:30.435Z,27.40
2022-07-25T08:29:17.579Z,27.40
2022-07-25T08:31:46.729Z,27.70
2022-07-25T08:34:16.602Z,28.00
2022-07-25T08:36:47.725Z,28.10
2022-07-25T08:39:16.112Z,28.10
2022-07-25T08:41:47.888Z,28.10
2022-07-25T08:44:21.400Z,27.60
2022-07-25T08:46:56.233Z,27.70
2022-07-25T08:49:25.804Z,27.90
2022-07-25T08:51:54.432Z,28.30
2022-07-25T08:54:28.344Z,28.50
2022-07-25T08:56:56.873Z,28.70
2022-07-25T08:59:25.131Z,28.80
2022-07-25T09:01:53.626Z,28.60
2022-07-25T09:04:22.245Z,29.00
2022-07-25T09:06:53.028Z,29.20
2022-07-25T09:09:30.302Z,29.20
2022-07-25T09:11:58.693Z,29.30
2022-07-25T09:14:28.574Z,29.40
2022-07-25T09:16:58.019Z,29.60
2022-07-25T09:19:27.470Z,29.70
2022-07-25T09:22:03.123Z,29.20
2022-07-25T09:24:33.585Z,28.70
2022-07-25T09:27:15.551Z,28.70
2022-07-25T09:29:46.459Z,28.70
2022-07-25T09:32:20.364Z,28.90
2022-07-25T09:34:50.019Z,29.30
2022-07-25T09:37:27.042Z,29.30
2022-07-25T09:39:55.715Z,29.30
2022-07-25T09:42:25.831Z,29.60
2022-07-25T09:45:06.811Z,30.00
2022-07-25T09:47:36.890Z,30.30
2022-07-25T09:50:06.885Z,30.40
2022-07-25T09:52:39.423Z,30.60
2022-07-25T09:55:10.161Z,30.40
2022-07-25T09:57:38.494Z,30.60
2022-07-25T10:00:08.944Z,30.70
2022-07-25T10:02:49.362Z,30.60
2022-07-25T10:05:32.160Z,30.80
2022-07-25T10:08:06.416Z,30.60
2022-07-25T10:10:39.856Z,30.50
2022-07-25T10:13:11.810Z,30.70
2022-07-25T10:15:46.371Z,30.70
2022-07-25T10:18:15.633Z,30.70
2022-07-25T10:20:45.078Z,31.00
2022-07-25T10:23:25.703Z,30.90
2022-07-25T10:26:10.471Z,31.00
2022-07-25T10:28:41.966Z,31.00
2022-07-25T10:31:22.944Z,31.20
2022-07-25T10:33:54.260Z,31.50
2022-07-25T10:36:23.636Z,32.00
2022-07-25T10:38:59.193Z,31.90
2022-07-25T10:41:28.872Z,32.20
2022-07-25T10:44:02.358Z,32.30
2022-07-25T10:46:32.567Z,32.20
2022-07-25T10:49:05.557Z,32.00
2022-07-25T10:51:39.591Z,31.90
2022-07-25T10:54:19.388Z,31.90
2022-07-25T10:57:02.687Z,32.20
2022-07-25T10:59:37.460Z,32.30
2022-07-25T11:02:09.673Z,32.50
2022-07-25T11:04:38.990Z,32.60
2022-07-25T11:07:11.251Z,32.70
2022-07-25T11:09:44.643Z,32.90
2022-07-25T11:12:18.062Z,32.90
2022-07-25T11:14:47.493Z,32.90
2022-07-25T11:17:18.872Z,33.00
2022-07-25T11:19:56.565Z,32.90
2022-07-25T11:22:27.145Z,32.90
2022-07-25T11:24:57.977Z,33.30
2022-07-25T11:27:28.589Z,33.40
2022-07-25T11:30:07.556Z,33.50
2022-07-25T11:32:40.610Z,33.60
2022-07-25T11:35:10.048Z,33.70
2022-07-25T11:37:40.561Z,33.20
2022-07-25T11:40:16.374Z,33.20
2022-07-25T11:42:47.640Z,33.30
2022-07-25T11:45:20.350Z,33.70
2022-07-25T11:48:02.995Z,34.00
2022-07-25T11:50:31.922Z,34.00
2022-07-25T11:53:01.188Z,33.50
2022-07-25T11:55:32.811Z,33.60
2022-07-25T11:58:03.442Z,33.40
2022-07-25T12:00:35.460Z,33.20
2022-07-25T12:03:19.880Z,33.10
2022-07-25T12:05:49.545Z,33.00
2022-07-25T12:08:19.599Z,33.00
2022-07-25T12:10:51.468Z,32.90
2022-07-25T12:13:25.042Z,33.00
2022-07-25T12:15:53.226Z,32.50
2022-07-25T12:18:22.483Z,32.60
2022-07-25T12:20:53.999Z,32.50
2022-07-25T12:23:22.692Z,32.50
2022-07-25T12:25:52.790Z,32.60
2022-07-25T12:28:20.925Z,32.60
2022-07-25T12:30:55.923Z,32.50
2022-07-25T12:33:24.585Z,32.40
2022-07-25T12:35:53.105Z,32.10
2022-07-25T12:38:23.480Z,32.10
2022-07-25T12:40:56.558Z,32.20
2022-07-25T12:43:24.815Z,32.00
2022-07-25T12:45:53.084Z,31.90
2022-07-25T12:48:21.195Z,31.90
2022-07-25T12:50:49.547Z,31.80
2022-07-25T12:53:17.689Z,31.80
2022-07-25T12:55:46.578Z,31.70
2022-07-25T12:58:19.143Z,31.10
2022-07-25T13:00:49.352Z,30.70
2022-07-25T13:03:20.913Z,30.20
2022-07-25T13:05:49.301Z,30.30
2022-07-25T13:08:17.931Z,30.30
2022-07-25T13:10:46.040Z,30.10
2022-07-25T13:13:14.741Z,30.00
2022-07-25T13:15:47.382Z,30.20
2022-07-25T13:18:15.796Z,30.60
2022-07-25T13:20:44.128Z,30.90
2022-07-25T13:23:20.538Z,31.30
2022-07-25T13:25:49.372Z,31.70
2022-07-25T13:28:18.631Z,31.70
2022-07-25T13:30:48.816Z,32.10
2022-07-25T13:33:21.802Z,32.30
2022-07-25T13:35:50.319Z,32.90
2022-07-25T13:38:18.833Z,32.80
2022-07-25T13:40:55.561Z,32.80
2022-07-25T13:43:29.498Z,32.80
2022-07-25T13:45:59.369Z,32.80
2022-07-25T13:48:31.058Z,32.70
2022-07-25T13:51:00.534Z,32.60
2022-07-25T13:53:34.961Z,32.80
2022-07-25T13:56:07.152Z,33.30
2022-07-25T13:58:35.760Z,33.30
2022-07-25T14:01:08.620Z,33.30
2022-07-25T14:03:37.451Z,33.30
2022-07-25T14:06:06.636Z,33.50
2022-07-25T14:08:35.098Z,33.60
2022-07-25T14:11:05.552Z,33.80
2022-07-25T14:13:36.148Z,33.70
2022-07-25T14:16:05.587Z,33.50
2022-07-25T14:18:35.897Z,33.50
2022-07-25T14:21:04.523Z,33.40
2022-07-25T14:23:32.734Z,33.30
2022-07-25T14:26:01.129Z,33.20
2022-07-25T14:28:29.554Z,33.20
2022-07-25T14:30:57.971Z,33.10
2022-07-25T14:33:27.436Z,32.90
2022-07-25T14:35:57.272Z,32.70
2022-07-25T14:38:25.497Z,32.70
2022-07-25T14:40:58.370Z,32.50
2022-07-25T14:43:26.652Z,32.60
2022-07-25T14:45:54.991Z,33.00
2022-07-25T14:48:23.554Z,33.10
2022-07-25T14:50:52.875Z,33.40
2022-07-25T14:53:22.710Z,33.50
2022-07-25T14:55:51.001Z,33.10
2022-07-25T14:58:19.428Z,33.10
2022-07-25T15:00:48.121Z,33.20
2022-07-25T15:03:16.422Z,33.30
2022-07-25T15:05:46.473Z,33.20
2022-07-25T15:08:17.300Z,33.00
2022-07-25T15:10:47.021Z,32.70
2022-07-25T15:13:32.057Z,32.80
2022-07-25T15:16:01.096Z,32.90
2022-07-25T15:20:58.140Z,32.80
2022-07-25T15:23:30.590Z,32.80
2022-07-25T15:26:02.691Z,32.80
2022-07-25T15:28:35.326Z,32.80
2022-07-25T15:31:04.145Z,32.60
2022-07-25T15:33:32.384Z,32.60
2022-07-25T15:36:01.011Z,32.50
2022-07-25T15:38:30.754Z,32.50
2022-07-25T15:41:10.745Z,32.50
2022-07-25T15:43:40.750Z,32.60
2022-07-25T15:46:14.616Z,32.60
2022-07-25T15:48:44.903Z,32.60
2022-07-25T15:51:16.817Z,32.70
2022-07-25T15:53:45.620Z,32.50
2022-07-25T15:56:17.333Z,32.50
2022-07-25T15:58:45.914Z,32.50
2022-07-25T16:01:22.068Z,32.10
2022-07-25T16:03:50.389Z,32.00
2022-07-25T16:06:20.826Z,31.70
2022-07-25T16:08:52.502Z,31.50
2022-07-25T16:11:30.142Z,31.50
2022-07-25T16:13:58.397Z,31.50
2022-07-25T16:16:27.717Z,31.50
2022-07-25T16:18:55.898Z,31.60
2022-07-25T16:21:26.440Z,31.60
2022-07-25T16:23:54.797Z,31.60
2022-07-25T16:26:23.135Z,31.70
2022-07-25T16:28:57.533Z,31.70
2022-07-25T16:31:28.315Z,31.40
2022-07-25T16:33:56.478Z,31.50
2022-07-25T16:36:25.414Z,31.30
2022-07-25T16:38:53.539Z,31.10
2022-07-25T16:41:25.238Z,30.80
2022-07-25T16:43:54.810Z,30.90
2022-07-25T16:46:26.927Z,31.00
2022-07-25T16:48:57.983Z,30.90
2022-07-25T16:51:34.128Z,30.80
2022-07-25T16:54:05.165Z,30.80
2022-07-25T16:56:33.507Z,30.40
2022-07-25T16:59:03.388Z,30.40
2022-07-25T17:01:33.030Z,30.50
2022-07-25T17:04:01.451Z,30.60
2022-07-25T17:06:30.027Z,30.60
2022-07-25T17:08:59.310Z,30.70
2022-07-25T17:11:34.477Z,30.50
2022-07-25T17:14:04.398Z,30.60
2022-07-25T17:16:33.066Z,30.60
2022-07-25T17:19:02.498Z,30.20
2022-07-25T17:21:31.784Z,29.90
2022-07-25T17:24:09.152Z,29.50
2022-07-25T17:26:40.787Z,29.30
2022-07-25T17:29:11.462Z,29.40
2022-07-25T17:31:42.421Z,28.80
2022-07-25T17:34:12.823Z,28.40
2022-07-25T17:36:41.029Z,28.20
2022-07-25T17:39:09.730Z,28.40
2022-07-25T17:41:38.259Z,28.20
2022-07-25T17:44:11.471Z,28.10
2022-07-25T17:46:41.604Z,28.10
2022-07-25T17:49:10.485Z,28.10
2022-07-25T17:51:38.799Z,28.10
2022-07-25T17:54:07.566Z,28.30
2022-07-25T17:56:45.802Z,28.00
2022-07-25T17:59:14.317Z,27.80
2022-07-25T18:01:44.059Z,27.60
2022-07-25T18:04:14.418Z,27.60
2022-07-25T18:06:42.799Z,27.50
2022-07-25T18:09:11.051Z,27.60
2022-07-25T18:11:40.507Z,27.50
2022-07-25T18:14:09.557Z,27.40
2022-07-25T18:16:41.457Z,27.30
2022-07-25T18:19:11.658Z,27.10
2022-07-25T18:21:40.432Z,26.90
2022-07-25T18:24:11.470Z,27.00
2022-07-25T18:26:40.667Z,27.10
2022-07-25T18:29:09.650Z,26.90
2022-07-25T18:31:41.435Z,26.60
2022-07-25T18:34:11.608Z,26.50
2022-07-25T18:36:42.573Z,26.80
2022-07-25T18:39:10.873Z,26.50
2022-07-25T18:41:39.204Z,26.20
2022-07-25T18:44:07.728Z,26.40
2022-07-25T18:46:39.197Z,26.20
2022-07-25T18:49:13.362Z,26.20
2022-07-25T18:51:43.687Z,25.90
2022-07-25T18:54:17.330Z,25.80
2022-07-25T18:56:45.710Z,25.80
2022-07-25T18:59:14.146Z,25.70
2022-07-25T19:01:47.780Z,25.70
2022-07-25T19:04:20.313Z,25.60
2022-07-25T19:06:49.195Z,25.40
2022-07-25T19:09:17.973Z,25.40
2022-07-25T19:11:47.950Z,25.50
2022-07-25T19:14:16.312Z,25.30
2022-07-25T19:16:45.462Z,25.30
2022-07-25T19:19:18.046Z,25.30
2022-07-25T19:21:50.770Z,25.20
2022-07-25T19:24:22.337Z,25.20
2022-07-25T19:26:51.334Z,25.20
2022-07-25T19:29:19.574Z,25.20
2022-07-25T19:31:55.358Z,25.10
2022-07-25T19:34:25.702Z,25.10
2022-07-25T19:36:56.572Z,25.10
2022-07-25T19:39:25.338Z,25.00
2022-07-25T19:41:53.640Z,25.10
2022-07-25T19:44:25.006Z,25.00
2022-07-25T19:46:54.331Z,25.00
2022-07-25T19:49:22.608Z,25.00
2022-07-25T19:51:50.977Z,24.80
2022-07-25T19:54:20.565Z,24.60
2022-07-25T19:56:50.762Z,24.60
2022-07-25T19:59:19.218Z,24.70
2022-07-25T20:01:50.251Z,24.80
2022-07-25T20:04:18.568Z,24.60
2022-07-25T20:06:46.714Z,24.50
2022-07-25T20:09:16.666Z,24.20
2022-07-25T20:11:51.978Z,24.30
2022-07-25T20:14:21.788Z,24.40
2022-07-25T20:16:52.650Z,24.40
2022-07-25T20:19:25.735Z,24.30
2022-07-25T20:21:57.090Z,24.30
2022-07-25T20:24:29.371Z,24.20
2022-07-25T20:26:59.553Z,24.00
2022-07-25T20:29:31.057Z,24.10
2022-07-25T20:31:59.742Z,24.00
2022-07-25T20:34:35.730Z,24.00
2022-07-25T20:37:06.064Z,24.00
2022-07-25T20:39:37.433Z,24.00
2022-07-25T20:42:09.221Z,24.10
2022-07-25T20:44:41.494Z,24.30
2022-07-25T20:47:13.557Z,24.50
2022-07-25T20:49:42.004Z,24.50
2022-07-25T20:52:11.848Z,24.70
2022-07-25T20:54:43.114Z,24.60
2022-07-25T20:57:14.466Z,24.60
2022-07-25T20:59:44.270Z,24.60
2022-07-25T21:02:17.585Z,24.70
2022-07-25T21:04:48.751Z,24.70
2022-07-25T21:07:17.619Z,24.70
2022-07-25T21:09:46.717Z,24.50
2022-07-25T21:12:20.586Z,24.50
2022-07-25T21:14:50.099Z,24.40
2022-07-25T21:17:21.970Z,24.40
2022-07-25T21:19:50.936Z,24.40
2022-07-25T21:22:25.768Z,24.40
2022-07-25T21:25:04.828Z,24.40
2022-07-25T21:27:35.675Z,24.50
2022-07-25T21:30:04.767Z,24.60
2022-07-25T21:32:33.480Z,24.70
2022-07-25T21:35:05.581Z,24.70
2022-07-25T21:37:36.382Z,24.70
2022-07-25T21:40:33.005Z,24.80
2022-07-25T21:43:03.040Z,24.70
2022-07-25T21:45:32.230Z,24.60
2022-07-25T21:48:05.890Z,24.60
2022-07-25T21:50:42.310Z,24.50
2022-07-25T21:53:15.373Z,24.40
2022-07-25T21:55:43.572Z,24.40
2022-07-25T21:58:13.178Z,24.40
2022-07-25T22:00:45.481Z,24.40
2022-07-25T22:03:15.046Z,23.90
2022-07-25T22:05:44.952Z,23.60
2022-07-25T22:08:13.493Z,23.70
2022-07-25T22:10:41.742Z,23.60
2022-07-25T22:13:13.899Z,23.60
2022-07-25T22:15:44.417Z,23.40
2022-07-25T22:18:12.597Z,23.30
2022-07-25T22:20:41.177Z,23.30
2022-07-25T22:23:12.660Z,23.30
2022-07-25T22:25:41.404Z,23.30
2022-07-25T22:28:14.199Z,23.30
2022-07-25T22:30:50.780Z,23.30
2022-07-25T22:33:44.584Z,23.30
2022-07-25T22:36:15.840Z,23.20
2022-07-25T22:38:46.229Z,23.00
2022-07-25T22:41:14.602Z,22.90
2022-07-25T22:43:53.128Z,22.90
2022-07-25T22:46:32.577Z,22.70
2022-07-25T22:49:03.774Z,22.70
2022-07-25T22:51:35.514Z,22.70
2022-07-25T22:54:05.970Z,22.60
2022-07-25T22:56:37.047Z,22.60
2022-07-25T22:59:08.248Z,22.50
2022-07-25T23:01:40.599Z,22.50
2022-07-25T23:04:09.209Z,22.40
2022-07-25T23:06:39.216Z,22.40
2022-07-25T23:09:08.147Z,22.50
2022-07-25T23:11:36.626Z,22.40
2022-07-25T23:14:08.212Z,22.50
2022-07-25T23:17:05.965Z,22.40
2022-07-25T23:19:34.487Z,22.50
2022-07-25T23:22:02.819Z,22.40
2022-07-25T23:28:38.007Z,22.60
2022-07-25T23:35:21.099Z,22.40
2022-07-25T23:37:49.299Z,22.20
2022-07-25T23:40:17.631Z,22.20
2022-07-25T23:42:46.166Z,22.20
2022-07-25T23:45:16.576Z,22.10
2022-07-25T23:47:47.815Z,21.90
2022-07-25T23:50:20.277Z,21.90
2022-07-25T23:52:50.153Z,22.00
2022-07-25T23:55:18.574Z,21.90
2022-07-25T23:57:47.069Z,21.90
